Time;durP1;ratioP1;P1;durP2;ratioP2;P2;SDS_P1;SDS_P2;PMS_P1;PMS_P2;Temp;Humidity;BMP_temperature;BMP_pressure;BME280_temperature;BME280_humidity;BME280_pressure;Samples;Min_cycle;Max_cycle;Signal;HPM_P1;HPM_P2
2021/05/18 00:00:29;;;;;;;19.55;8.63;;;;;;;10.65;76.28;100658.75;5048582;28;20111;-63
2021/05/18 00:02:55;;;;;;;16.35;6.50;;;;;;;10.66;76.24;100659.59;5048890;28;20072;-63
2021/05/18 00:05:23;;;;;;;21.17;8.98;;;;;;;10.68;76.28;100660.44;5048168;28;20049;-61
2021/05/18 00:07:55;;;;;;;17.75;7.00;;;;;;;10.69;76.62;100660.38;5048493;28;20064;-63
2021/05/18 00:13:06;;;;;;;17.60;7.90;;;;;;;10.54;77.03;100664.16;5045750;28;20052;-63
2021/05/18 00:15:33;;;;;;;18.73;7.13;;;;;;;10.53;77.21;100665.03;5041174;28;20075;-64
2021/05/18 00:17:59;;;;;;;14.05;7.10;;;;;;;10.49;77.06;100668.63;5042748;28;20051;-63
2021/05/18 00:20:25;;;;;;;16.35;6.70;;;;;;;10.46;77.42;100693.84;5046717;28;20057;-64
2021/05/18 00:22:52;;;;;;;19.27;7.18;;;;;;;10.42;77.90;100680.03;5049472;28;20525;-63
2021/05/18 00:25:18;;;;;;;17.98;7.75;;;;;;;10.36;78.21;100677.50;5047718;28;20053;-63
2021/05/18 00:27:44;;;;;;;19.15;7.18;;;;;;;10.31;77.73;100675.00;5044041;28;20061;-63
2021/05/18 00:30:12;;;;;;;20.88;7.60;;;;;;;10.30;78.39;100677.63;5047651;28;20777;-64
2021/05/18 00:32:39;;;;;;;18.02;7.35;;;;;;;10.34;77.94;100676.66;5045869;28;20107;-64
2021/05/18 00:35:07;;;;;;;18.92;8.60;;;;;;;10.35;78.15;100673.19;5047769;28;20044;-63
2021/05/18 00:37:33;;;;;;;17.90;7.30;;;;;;;10.38;77.88;100675.75;5049100;28;20057;-64
2021/05/18 00:40:00;;;;;;;16.42;7.90;;;;;;;10.39;77.70;100675.72;5049526;28;20049;-64
2021/05/18 00:42:26;;;;;;;25.23;7.88;;;;;;;10.41;77.50;100681.75;5046867;28;20041;-64
2021/05/18 00:44:54;;;;;;;23.33;7.93;;;;;;;10.48;77.47;100677.31;5049583;28;20079;-64
2021/05/18 00:47:20;;;;;;;15.75;6.60;;;;;;;10.45;78.03;100672.16;5048845;28;20502;-64
2021/05/18 00:49:46;;;;;;;21.20;7.93;;;;;;;10.47;77.76;100675.59;5052700;28;20099;-63
2021/05/18 00:52:12;;;;;;;18.77;7.90;;;;;;;10.44;77.92;100685.19;5051222;28;20057;-64
2021/05/18 00:54:42;;;;;;;18.75;7.55;;;;;;;10.39;78.48;100683.53;5053290;28;20044;-64
2021/05/18 00:59:54;;;;;;;14.63;7.60;;;;;;;10.35;78.21;100679.25;5048497;28;20077;-63
2021/05/18 01:02:21;;;;;;;14.95;7.15;;;;;;;10.42;77.94;100670.47;5050591;28;20065;-64
2021/05/18 01:04:48;;;;;;;14.65;7.85;;;;;;;10.44;78.25;100667.00;5051009;28;20075;-64
2021/05/18 01:07:14;;;;;;;21.25;9.18;;;;;;;10.42;78.20;100673.06;5054463;28;20067;-64
2021/05/18 01:09:40;;;;;;;22.35;8.30;;;;;;;10.51;78.48;100671.19;5052708;28;22587;-64
2021/05/18 01:12:07;;;;;;;20.35;7.22;;;;;;;10.57;77.67;100676.28;5052452;28;20103;-64
2021/05/18 01:14:34;;;;;;;20.50;8.38;;;;;;;10.56;77.24;100683.19;5052381;28;20041;-64
2021/05/18 01:17:00;;;;;;;14.70;7.30;;;;;;;10.57;77.32;100676.28;5051650;28;20053;-64
2021/05/18 01:19:26;;;;;;;19.27;7.70;;;;;;;10.47;77.62;100683.38;5051951;28;20061;-64
2021/05/18 01:21:55;;;;;;;19.33;7.65;;;;;;;10.45;77.54;100686.91;5050479;28;20502;-64
2021/05/18 01:24:21;;;;;;;20.02;8.75;;;;;;;10.41;77.56;100686.97;5050665;28;20049;-64
2021/05/18 01:26:48;;;;;;;17.58;8.18;;;;;;;10.45;77.44;100682.56;5052554;28;20057;-64
2021/05/18 01:29:16;;;;;;;22.20;7.50;;;;;;;10.37;77.73;100685.31;5051498;28;20578;-64
2021/05/18 01:31:44;;;;;;;19.35;7.47;;;;;;;10.34;77.66;100685.34;5049295;28;20044;-64
2021/05/18 01:34:11;;;;;;;19.88;7.72;;;;;;;10.39;78.19;100685.28;5049762;28;20509;-62
2021/05/18 01:36:37;;;;;;;18.17;8.20;;;;;;;10.33;78.09;100685.38;5052526;28;20056;-63
2021/05/18 01:39:12;;;;;;;16.77;8.13;;;;;;;10.35;78.11;100683.59;5049999;28;20059;-62
2021/05/18 01:44:21;;;;;;;17.23;9.48;;;;;;;10.41;78.15;100688.72;5052272;28;20541;-62
2021/05/18 01:46:48;;;;;;;18.10;9.35;;;;;;;10.48;78.46;100687.69;5052640;28;20077;-62
2021/05/18 01:49:16;;;;;;;17.88;8.18;;;;;;;10.47;78.75;100691.19;5051214;28;20182;-63
2021/05/18 01:51:45;;;;;;;14.05;8.30;;;;;;;10.45;78.46;100687.75;5051169;28;20102;-63
2021/05/18 01:54:15;;;;;;;14.75;8.40;;;;;;;10.45;78.64;100694.72;5052232;28;20040;-65
2021/05/18 01:56:46;;;;;;;20.02;9.05;;;;;;;10.42;79.26;100693.88;5046303;28;20053;-63
2021/05/18 01:59:18;;;;;;;15.60;9.40;;;;;;;10.40;79.40;100690.44;5054045;28;20068;-63
2021/05/18 02:01:45;;;;;;;20.30;9.82;;;;;;;10.40;79.78;100689.59;5049840;28;20055;-64
2021/05/18 02:04:21;;;;;;;16.67;10.23;;;;;;;10.44;80.80;100691.25;5050963;28;20040;-63
2021/05/18 02:06:47;;;;;;;20.10;11.35;;;;;;;10.41;80.87;100694.75;5051280;28;20048;-64
2021/05/18 02:09:14;;;;;;;20.35;11.52;;;;;;;10.41;81.02;100697.38;5048934;28;20049;-63
2021/05/18 02:11:40;;;;;;;23.10;11.88;;;;;;;10.40;81.78;100695.66;5043897;28;20048;-63
2021/05/18 02:14:11;;;;;;;21.75;12.48;;;;;;;10.35;82.09;100693.97;5051241;28;20079;-63
2021/05/18 02:16:40;;;;;;;20.60;12.07;;;;;;;10.31;82.72;100698.38;5037029;28;20414;-59
2021/05/18 02:19:15;;;;;;;20.02;12.40;;;;;;;10.33;82.91;100698.38;5049083;28;20517;-64
2021/05/18 02:21:55;;;;;;;19.70;11.98;;;;;;;10.36;82.87;100700.91;5041774;28;20064;-64
2021/05/18 02:27:08;;;;;;;25.13;13.50;;;;;;;10.32;83.45;100699.25;5032650;28;20047;-63
2021/05/18 02:29:34;;;;;;;22.30;13.65;;;;;;;10.30;84.00;100706.22;5042799;28;20052;-63
2021/05/18 02:32:01;;;;;;;23.05;13.98;;;;;;;10.30;83.97;100701.03;5048878;28;20049;-65
2021/05/18 02:34:26;;;;;;;21.30;14.38;;;;;;;10.31;84.30;100694.94;5049000;28;20053;-64
2021/05/18 02:36:52;;;;;;;20.63;14.05;;;;;;;10.32;84.05;100697.50;5051173;28;20048;-64
2021/05/18 02:39:18;;;;;;;20.00;14.75;;;;;;;10.32;84.09;100702.72;5046210;28;20049;-64
2021/05/18 02:41:45;;;;;;;19.13;13.93;;;;;;;10.34;84.48;100702.66;5048776;28;20064;-64
2021/05/18 02:44:15;;;;;;;21.70;14.75;;;;;;;10.28;84.54;100698.47;5046922;28;20473;-64
2021/05/18 02:49:25;;;;;;;21.33;14.35;;;;;;;10.16;85.27;100703.88;5050344;28;20052;-64
2021/05/18 02:51:52;;;;;;;20.27;14.30;;;;;;;10.20;84.46;100700.31;5051383;28;20045;-64
2021/05/18 02:54:22;;;;;;;21.05;14.10;;;;;;;10.15;85.10;100702.16;5050437;28;20060;-64
2021/05/18 02:56:52;;;;;;;18.35;12.68;;;;;;;10.18;85.26;100702.97;5051567;28;20048;-62
2021/05/18 02:59:19;;;;;;;21.10;13.35;;;;;;;10.23;84.92;100708.91;5049107;28;20040;-66
2021/05/18 03:01:48;;;;;;;18.13;13.15;;;;;;;10.20;85.05;100703.81;5050117;28;20052;-64
2021/05/18 03:04:14;;;;;;;17.88;13.27;;;;;;;10.16;84.76;100696.94;5043651;28;20049;-64
2021/05/18 03:06:40;;;;;;;18.77;13.40;;;;;;;10.22;85.27;100699.44;5049295;28;20495;-62
2021/05/18 03:09:10;;;;;;;17.90;11.80;;;;;;;10.20;84.98;100703.81;5049055;28;20044;-64
2021/05/18 03:11:38;;;;;;;17.20;11.85;;;;;;;10.16;85.85;100707.31;5047394;28;20056;-64
2021/05/18 03:14:07;;;;;;;14.15;10.10;;;;;;;10.21;85.27;100708.13;5044994;28;24258;-64
2021/05/18 03:16:34;;;;;;;16.77;11.40;;;;;;;10.29;85.04;100707.13;5045098;28;20053;-64
2021/05/18 03:19:01;;;;;;;15.80;11.02;;;;;;;10.31;84.90;100707.94;5051208;28;20128;-62
2021/05/18 03:21:26;;;;;;;15.07;11.45;;;;;;;10.26;85.11;100710.63;5047331;28;20041;-63
2021/05/18 03:23:52;;;;;;;13.70;11.82;;;;;;;10.23;84.65;100708.06;5049997;28;20041;-64
2021/05/18 03:26:18;;;;;;;15.48;11.82;;;;;;;10.19;85.37;100707.28;5049767;28;20052;-63
2021/05/18 03:28:46;;;;;;;20.05;11.88;;;;;;;10.16;84.97;100706.50;5050408;28;20052;-62
2021/05/18 03:36:38;;;;;;;16.13;12.40;;;;;;;10.15;85.27;100702.16;5049329;28;20166;-63
2021/05/18 03:39:04;;;;;;;15.93;11.20;;;;;;;10.18;85.80;100709.91;5049089;28;20045;-64
2021/05/18 03:41:41;;;;;;;17.33;13.25;;;;;;;10.18;85.67;100709.91;5047685;28;20041;-64
2021/05/18 03:44:15;;;;;;;18.60;12.55;;;;;;;10.19;85.86;100709.88;5046111;28;20048;-62
2021/05/18 03:52:23;;;;;;;18.30;12.93;;;;;;;10.08;86.37;100714.41;5046803;28;20126;-61
2021/05/18 03:55:00;;;;;;;21.55;14.07;;;;;;;10.13;86.41;100711.72;5043287;28;20044;-61
2021/05/18 04:03:03;;;;;;;17.95;13.75;;;;;;;10.22;86.42;100717.63;5043984;28;20064;-65
2021/05/18 04:19:36;;;;;;;17.73;12.65;;;;;;;10.32;86.22;100727.88;5034830;28;20127;-64
2021/05/18 04:22:22;;;;;;;16.85;12.55;;;;;;;10.32;86.16;100727.88;5043087;28;20047;-64
2021/05/18 04:25:24;;;;;;;16.50;12.32;;;;;;;10.30;86.10;100727.03;5052541;28;20076;-63
2021/05/18 04:38:52;;;;;;;15.80;11.88;;;;;;;10.32;86.09;100733.91;5054238;28;20055;-64
2021/05/18 04:52:28;;;;;;;16.02;11.50;;;;;;;10.45;86.15;100744.13;5053596;28;20055;-64
2021/05/18 05:00:22;;;;;;;22.00;11.33;;;;;;;10.54;86.14;100743.94;5055392;28;20105;-63
2021/05/18 05:08:22;;;;;;;16.98;10.95;;;;;;;10.44;86.83;100752.81;5055075;28;20153;-64
2021/05/18 05:16:16;;;;;;;21.10;12.80;;;;;;;10.46;86.71;100757.09;5052229;28;20071;-64
2021/05/18 05:18:42;;;;;;;20.58;12.60;;;;;;;10.47;87.21;100753.59;5054910;28;20095;-64
2021/05/18 05:21:09;;;;;;;19.10;13.32;;;;;;;10.50;86.79;100753.56;5054591;28;20044;-64
2021/05/18 05:23:35;;;;;;;23.08;13.13;;;;;;;10.51;86.78;100764.81;5048232;28;20079;-64
2021/05/18 05:26:01;;;;;;;21.48;14.38;;;;;;;10.57;86.70;100760.34;5059718;28;20398;-63
2021/05/18 05:28:28;;;;;;;24.20;15.05;;;;;;;10.60;86.86;100766.38;5053472;28;20102;-64
2021/05/18 05:30:54;;;;;;;21.73;15.70;;;;;;;10.61;86.45;100760.31;5057447;28;20045;-64
2021/05/18 05:33:20;;;;;;;24.80;15.15;;;;;;;10.57;85.85;100762.94;5051508;28;20049;-64
2021/05/18 05:35:45;;;;;;;23.73;14.70;;;;;;;10.58;86.68;100769.88;5056805;28;20053;-60
2021/05/18 05:38:15;;;;;;;27.20;16.20;;;;;;;10.58;86.63;100767.25;5058099;28;20048;-64
2021/05/18 05:40:41;;;;;;;20.85;14.95;;;;;;;10.64;86.51;100770.63;5050609;28;20073;-64
2021/05/18 05:43:07;;;;;;;25.33;16.15;;;;;;;10.69;86.50;100756.66;5057630;28;20048;-63
2021/05/18 05:45:33;;;;;;;26.48;17.73;;;;;;;10.81;85.47;100759.91;5049677;28;20057;-62
2021/05/18 05:47:59;;;;;;;21.48;16.55;;;;;;;10.91;85.86;100771.84;5061811;28;20494;-64
2021/05/18 05:50:25;;;;;;;24.15;17.17;;;;;;;10.97;85.47;100763.94;5049961;28;20075;-64
2021/05/18 05:52:51;;;;;;;26.30;17.48;;;;;;;11.01;85.33;100769.91;5054682;28;20148;-62
2021/05/18 05:55:17;;;;;;;29.65;17.90;;;;;;;11.09;85.61;100764.53;5054110;28;20037;-62
2021/05/18 05:57:45;;;;;;;27.42;18.08;;;;;;;11.16;84.77;100779.16;5051678;28;20060;-62
2021/05/18 06:00:12;;;;;;;26.63;16.42;;;;;;;11.25;85.00;100781.56;5049943;28;20045;-62
2021/05/18 06:02:38;;;;;;;30.50;18.90;;;;;;;11.40;84.76;100787.31;5053328;28;20052;-61
2021/05/18 06:05:05;;;;;;;27.88;17.90;;;;;;;11.47;84.10;100787.16;5056770;28;20037;-61
2021/05/18 06:07:31;;;;;;;29.27;16.98;;;;;;;11.61;83.33;100788.59;5051170;28;20048;-60
2021/05/18 06:10:00;;;;;;;29.58;17.73;;;;;;;11.57;83.59;100785.22;5049706;28;20045;-62
2021/05/18 06:12:43;;;;;;;28.20;17.88;;;;;;;11.62;83.90;100785.09;5050211;28;20056;-62
2021/05/18 06:15:33;;;;;;;30.67;18.25;;;;;;;11.70;83.12;100790.13;5056664;28;20040;-58
2021/05/18 06:37:39;;;;;;;29.17;19.90;;;;;;;12.39;80.47;100798.03;5054171;28;20103;-58
2021/05/18 06:43:00;;;;;;;28.80;20.38;;;;;;;12.30;80.06;100809.59;5056768;28;20103;-61
2021/05/18 06:48:10;;;;;;;33.92;20.88;;;;;;;12.21;80.77;100815.03;5038243;28;20047;-61
2021/05/18 06:50:36;;;;;;;34.55;21.17;;;;;;;12.21;80.44;100808.06;5051012;28;20351;-62
2021/05/18 06:53:03;;;;;;;34.47;21.67;;;;;;;12.25;80.02;100819.25;5053840;28;20049;-62
2021/05/18 06:55:31;;;;;;;30.50;18.10;;;;;;;12.20;81.10;100816.75;5054032;28;20048;-62
2021/05/18 06:58:03;;;;;;;33.50;20.50;;;;;;;12.19;80.79;100820.25;5048521;28;20090;-62
2021/05/18 07:00:28;;;;;;;30.60;21.27;;;;;;;12.22;80.27;100824.56;5044859;28;20041;-62
2021/05/18 07:02:57;;;;;;;31.33;20.10;;;;;;;12.26;79.58;100826.19;5047357;28;20060;-61
2021/05/18 07:05:31;;;;;;;29.55;19.23;;;;;;;12.25;79.45;100840.13;5058101;28;20043;-62
2021/05/18 07:08:04;;;;;;;29.98;18.85;;;;;;;12.26;79.71;100841.84;5048123;28;20056;-63
2021/05/18 07:10:30;;;;;;;32.30;19.88;;;;;;;12.34;79.73;100846.88;5048797;28;20505;-61
2021/05/18 07:12:56;;;;;;;27.88;19.20;;;;;;;12.36;79.92;100847.69;5052836;28;20502;-62
2021/05/18 07:15:22;;;;;;;30.80;20.15;;;;;;;12.43;79.43;100844.88;5046245;28;20127;-61
2021/05/18 07:17:48;;;;;;;27.75;18.30;;;;;;;12.48;79.20;100844.75;5044426;28;20041;-62
2021/05/18 07:20:14;;;;;;;31.67;19.20;;;;;;;12.53;79.05;100842.03;5054060;28;20080;-62
2021/05/18 07:22:41;;;;;;;29.50;18.77;;;;;;;12.50;78.48;100848.19;5056175;28;20494;-63
2021/05/18 07:25:08;;;;;;;28.73;18.65;;;;;;;12.60;77.32;100851.44;5052216;28;20511;-60
2021/05/18 07:27:34;;;;;;;34.63;20.27;;;;;;;12.53;78.82;100852.47;5060079;28;20510;-62
2021/05/18 07:30:00;;;;;;;32.72;18.63;;;;;;;12.60;78.18;100846.22;5049181;28;20048;-62
2021/05/18 07:32:26;;;;;;;29.98;20.08;;;;;;;12.57;77.57;100854.13;5052955;28;20048;-60
2021/05/18 07:34:54;;;;;;;29.05;19.10;;;;;;;12.64;77.14;100854.81;5055679;28;20123;-63
2021/05/18 07:37:21;;;;;;;30.20;19.15;;;;;;;12.54;77.81;100857.66;5055521;28;20418;-61
2021/05/18 07:39:48;;;;;;;29.27;19.88;;;;;;;12.68;77.47;100864.25;5053223;28;20053;-61
2021/05/18 07:42:14;;;;;;;30.98;19.50;;;;;;;12.77;76.99;100864.06;5052755;28;20063;-60
2021/05/18 07:44:40;;;;;;;33.83;18.13;;;;;;;12.73;77.71;100868.47;5072760;22;20057;-64
2021/05/18 07:47:07;;;;;;;27.20;19.17;;;;;;;12.77;76.72;100876.22;5032543;28;20087;-64
2021/05/18 07:49:36;;;;;;;33.00;18.85;;;;;;;12.67;76.36;100866.03;5040944;28;20518;-64
2021/05/18 08:05:53;;;;;;;31.92;18.42;;;;;;;12.99;75.29;100864.31;5045978;28;20451;-64
2021/05/18 08:08:20;;;;;;;27.83;17.70;;;;;;;13.25;74.79;100857.50;5045210;28;20484;-63
2021/05/18 08:10:49;;;;;;;28.05;18.98;;;;;;;13.41;74.45;100855.34;5055153;28;20055;-65
2021/05/18 08:13:21;;;;;;;33.05;19.65;;;;;;;13.47;75.11;100849.06;5050668;28;20119;-65
2021/05/18 09:50:58;;;;;;;17.60;12.93;;;;;;;15.13;67.93;100855.00;5039924;28;20053;-64
2021/05/18 10:37:36;;;;;;;7.95;5.05;;;;;;;12.97;65.81;100871.34;5043639;28;20549;-64
2021/05/18 10:40:25;;;;;;;8.50;5.43;;;;;;;12.93;65.78;100887.13;5046304;28;20046;-64
2021/05/18 10:43:28;;;;;;;8.82;4.80;;;;;;;13.16;66.17;100886.50;5048029;28;20049;-63
2021/05/18 10:46:27;;;;;;;7.65;5.07;;;;;;;13.30;65.63;100886.09;5043613;28;20048;-63
2021/05/18 10:49:09;;;;;;;10.55;5.82;;;;;;;13.73;65.01;100891.88;5031657;28;20073;-64
2021/05/18 10:51:54;;;;;;;10.05;6.10;;;;;;;13.83;64.15;100888.06;5039852;28;20115;-63
2021/05/18 10:54:28;;;;;;;8.43;6.50;;;;;;;13.93;62.95;100886.03;5040572;28;20470;-63
2021/05/18 10:57:14;;;;;;;9.73;5.68;;;;;;;14.19;63.55;100880.00;5045000;28;20415;-64
2021/05/18 10:59:44;;;;;;;8.18;5.75;;;;;;;14.04;63.33;100886.56;5041815;28;20544;-62
2021/05/18 11:02:13;;;;;;;9.85;6.43;;;;;;;14.09;64.29;100883.81;5042809;28;20043;-65
2021/05/18 11:04:41;;;;;;;11.70;6.53;;;;;;;14.02;63.32;100887.53;5047030;28;20045;-64
2021/05/18 11:07:09;;;;;;;9.80;6.80;;;;;;;14.28;62.70;100884.94;5040439;28;20060;-64
2021/05/18 11:09:36;;;;;;;10.10;7.03;;;;;;;14.35;62.89;100889.97;5043465;28;20044;-65
2021/05/18 11:12:05;;;;;;;9.13;6.90;;;;;;;14.23;63.97;100878.13;5040844;28;20197;-65
2021/05/18 11:14:37;;;;;;;10.57;7.07;;;;;;;14.20;63.39;100871.25;5045161;28;20045;-65
2021/05/18 11:17:08;;;;;;;11.18;6.45;;;;;;;14.38;64.13;100875.00;5042249;28;20049;-63
2021/05/18 11:19:44;;;;;;;13.32;7.00;;;;;;;14.44;63.18;100864.34;5046382;28;20045;-65
2021/05/18 11:22:10;;;;;;;9.00;7.28;;;;;;;14.67;62.41;100867.13;5048116;28;20384;-65
2021/05/18 11:24:46;;;;;;;10.85;7.25;;;;;;;14.91;62.85;100861.03;5042459;28;20056;-65
2021/05/18 11:27:12;;;;;;;12.05;6.90;;;;;;;15.15;60.42;100857.59;5044519;28;20048;-63
2021/05/18 11:29:39;;;;;;;10.02;6.40;;;;;;;15.30;60.68;100858.78;5041529;28;20618;-63
2021/05/18 11:32:09;;;;;;;10.52;6.93;;;;;;;15.42;60.65;100867.97;5048548;28;20064;-64
2021/05/18 11:34:50;;;;;;;9.45;7.22;;;;;;;15.05;60.20;100863.16;5041645;28;20509;-62
2021/05/18 11:37:16;;;;;;;10.57;7.57;;;;;;;15.27;62.32;100869.38;5045322;28;20069;-63
2021/05/18 11:39:42;;;;;;;11.98;7.18;;;;;;;15.06;61.07;100874.50;5044369;28;20359;-63
2021/05/18 11:42:08;;;;;;;12.85;7.03;;;;;;;15.08;62.83;100883.16;5049440;28;20044;-63
2021/05/18 11:44:35;;;;;;;11.68;7.35;;;;;;;15.04;62.75;100889.41;5038562;28;20540;-64
2021/05/18 11:47:01;;;;;;;12.73;7.70;;;;;;;14.91;63.42;100892.47;5044895;28;20386;-64
2021/05/18 11:49:28;;;;;;;12.20;8.02;;;;;;;14.73;64.87;100886.09;5043660;28;20041;-64
2021/05/18 11:51:55;;;;;;;11.15;6.60;;;;;;;14.63;63.71;100889.91;5041303;28;20045;-64
2021/05/18 11:54:25;;;;;;;11.48;6.25;;;;;;;14.47;62.89;100910.50;5041735;28;20046;-63
2021/05/18 11:56:52;;;;;;;16.25;7.13;;;;;;;14.04;66.70;100910.13;5041370;28;20510;-62
2021/05/18 11:59:20;;;;;;;13.30;6.82;;;;;;;13.70;69.37;100918.97;5045021;28;20053;-63
2021/05/18 12:01:51;;;;;;;8.02;5.95;;;;;;;13.55;69.76;100927.25;5039739;28;20439;-63
2021/05/18 12:04:18;;;;;;;12.20;6.10;;;;;;;13.43;69.73;100918.00;5048445;28;20098;-64
2021/05/18 12:06:55;;;;;;;8.43;4.97;;;;;;;13.30;68.49;100923.56;5048621;28;20051;-64
2021/05/18 12:09:22;;;;;;;9.50;4.80;;;;;;;13.14;67.31;100924.84;5048643;28;20056;-64
2021/05/18 12:11:52;;;;;;;9.90;5.22;;;;;;;13.15;67.25;100930.06;5045631;28;20057;-64
2021/05/18 12:14:18;;;;;;;9.98;5.03;;;;;;;13.24;67.72;100928.94;5048471;28;20242;-64
2021/05/18 12:16:45;;;;;;;8.57;5.32;;;;;;;13.26;68.53;100926.28;5045949;28;20052;-64
2021/05/18 12:19:12;;;;;;;10.05;5.35;;;;;;;13.50;67.35;100927.41;5046638;28;20487;-63
2021/05/18 12:21:38;;;;;;;9.70;4.90;;;;;;;13.62;65.22;100926.19;5042641;28;20045;-64
2021/05/18 12:24:11;;;;;;;9.65;4.68;;;;;;;13.93;64.85;100933.13;5046167;28;20041;-61
2021/05/18 12:26:49;;;;;;;7.25;3.55;;;;;;;14.21;62.99;100924.41;5046663;28;20059;-64
2021/05/18 12:29:34;;;;;;;6.70;3.33;;;;;;;14.48;63.23;100925.31;5043758;28;20056;-64
2021/05/18 12:32:17;;;;;;;8.77;3.40;;;;;;;14.86;63.41;100919.72;5045867;28;20041;-62
2021/05/18 12:34:44;;;;;;;7.55;3.35;;;;;;;15.34;59.86;100923.28;5046642;28;20048;-62
2021/05/18 12:37:10;;;;;;;7.22;3.10;;;;;;;15.48;58.03;100910.53;5046945;28;20036;-62
2021/05/18 12:39:42;;;;;;;7.35;3.15;;;;;;;15.48;59.46;100918.41;5047446;28;20402;-63
2021/05/18 12:42:11;;;;;;;5.70;3.53;;;;;;;15.78;59.10;100917.28;5046721;28;20075;-62
2021/05/18 12:44:50;;;;;;;6.50;3.00;;;;;;;15.89;59.03;100912.53;5047256;28;20337;-64
2021/05/18 12:47:25;;;;;;;5.60;3.50;;;;;;;16.11;57.22;100914.31;5043416;28;20057;-65
2021/05/18 12:49:51;;;;;;;;;;;;;;;16.06;55.34;100914.50;5040071;28;20065;-64
2021/05/18 12:52:17;;;;;;;6.72;3.85;;;;;;;16.14;54.84;100915.03;5038301;28;20018;-64
2021/05/18 12:54:49;;;;;;;8.00;3.60;;;;;;;16.17;58.08;100914.94;5038683;28;20041;-64
2021/05/18 12:57:17;;;;;;;9.82;4.55;;;;;;;16.07;57.95;100913.59;5038466;28;20048;-63
2021/05/18 13:00:01;;;;;;;8.52;4.43;;;;;;;16.12;60.51;100909.00;5038940;28;20061;-64
2021/05/18 13:02:32;;;;;;;7.07;4.15;;;;;;;16.07;59.92;100918.00;5039598;28;20572;-64
2021/05/18 13:05:04;;;;;;;5.88;3.78;;;;;;;16.21;59.05;100915.66;5040031;28;20536;-63
2021/05/18 13:07:30;;;;;;;9.68;4.35;;;;;;;16.10;56.93;100904.72;5047155;28;20049;-64
2021/05/18 13:10:06;;;;;;;7.13;4.13;;;;;;;15.83;56.42;100900.47;5037661;28;20061;-64
2021/05/18 13:12:32;;;;;;;7.15;3.55;;;;;;;15.75;56.28;100914.81;5039608;28;20785;-63
2021/05/18 13:15:00;;;;;;;6.25;3.95;;;;;;;15.75;56.69;100909.56;5048860;28;20433;-63
2021/05/18 13:17:27;;;;;;;8.55;4.43;;;;;;;15.76;56.69;100906.88;5039781;28;20045;-63
2021/05/18 13:19:58;;;;;;;9.20;4.35;;;;;;;15.64;56.56;100900.34;5044837;28;20482;-64
2021/05/18 13:22:26;;;;;;;6.72;4.10;;;;;;;15.73;56.32;100904.34;5049499;28;20050;-64
2021/05/18 13:27:37;;;;;;;6.78;4.30;;;;;;;16.24;60.05;100909.41;5037810;28;20060;-65
2021/05/18 13:30:04;;;;;;;8.73;4.22;;;;;;;16.53;55.03;100904.75;5033340;28;20557;-64
2021/05/18 13:32:30;;;;;;;5.95;3.80;;;;;;;16.58;56.73;100900.16;5043473;28;20041;-64
2021/05/18 13:34:56;;;;;;;6.00;4.10;;;;;;;16.51;55.34;100901.34;5042426;28;20079;-64
2021/05/18 13:37:22;;;;;;;6.25;3.72;;;;;;;16.52;52.90;100898.66;5048277;28;20067;-64
2021/05/18 13:39:48;;;;;;;6.22;4.28;;;;;;;16.39;50.08;100903.56;5049556;28;20651;-64
2021/05/18 13:42:14;;;;;;;9.00;4.00;;;;;;;16.34;50.75;100896.78;5046836;28;20056;-63
2021/05/18 13:44:41;;;;;;;8.90;4.00;;;;;;;16.30;52.89;100898.69;5041298;28;20486;-64
2021/05/18 13:47:07;;;;;;;5.97;3.92;;;;;;;16.23;52.08;100908.56;5039831;28;20045;-63
2021/05/18 13:49:33;;;;;;;7.20;4.05;;;;;;;16.26;50.23;100908.47;5041912;28;20489;-64
2021/05/18 13:51:59;;;;;;;6.28;4.00;;;;;;;16.30;52.11;100904.78;5044558;28;20128;-62
2021/05/18 13:54:25;;;;;;;6.88;4.50;;;;;;;16.38;53.96;100909.72;5042545;28;20502;-63
2021/05/18 13:56:50;;;;;;;6.57;3.70;;;;;;;16.50;53.97;100904.91;5048238;28;20053;-64
2021/05/18 13:59:16;;;;;;;7.72;4.55;;;;;;;16.60;52.26;100908.84;5040282;28;20061;-64
2021/05/18 14:01:43;;;;;;;8.10;4.93;;;;;;;16.67;50.41;100905.03;5042482;28;20060;-63
2021/05/18 14:04:09;;;;;;;10.70;4.65;;;;;;;16.63;51.06;100908.69;5037083;28;20057;-65
2021/05/18 14:06:48;;;;;;;8.48;4.28;;;;;;;16.70;50.89;100912.78;5037207;28;20045;-65
2021/05/18 14:09:14;;;;;;;5.80;3.72;;;;;;;16.72;51.09;100904.84;5045032;28;20053;-63
2021/05/18 14:11:40;;;;;;;7.50;4.25;;;;;;;16.67;52.56;100899.78;5044816;28;20056;-64
2021/05/18 14:14:06;;;;;;;6.80;4.20;;;;;;;16.69;53.79;100902.34;5044229;28;20045;-62
2021/05/18 14:16:31;;;;;;;7.15;4.00;;;;;;;16.75;53.07;100908.19;5034385;28;20084;-64
2021/05/18 14:18:58;;;;;;;7.20;4.65;;;;;;;16.93;51.19;100903.06;5037121;28;20045;-63
2021/05/18 14:21:26;;;;;;;7.25;4.75;;;;;;;16.76;49.82;100902.03;5037043;28;23655;-59
2021/05/18 14:23:57;;;;;;;6.68;4.30;;;;;;;16.76;50.40;100901.19;5045245;28;20052;-58
2021/05/18 14:26:25;;;;;;;5.40;3.78;;;;;;;16.69;52.41;100903.22;5039512;28;20487;-64
2021/05/18 14:28:51;;;;;;;7.20;2.30;;;;;;;16.73;48.76;100909.19;5041956;28;20145;-65
2021/05/18 14:31:18;;;;;;;5.20;2.72;;;;;;;16.74;48.03;100903.00;5043155;28;20045;-60
2021/05/18 14:33:45;;;;;;;5.40;3.10;;;;;;;16.68;47.76;100901.50;5039513;28;20045;-65
2021/05/18 14:36:13;;;;;;;4.32;2.20;;;;;;;16.39;47.92;100908.81;5035863;28;20052;-65
2021/05/18 14:38:41;;;;;;;8.07;2.88;;;;;;;16.17;47.87;100912.31;5045840;28;20498;-64
2021/05/18 14:46:51;;;;;;;3.72;2.03;;;;;;;16.19;45.86;100908.75;5027100;28;20072;-66
2021/05/18 14:57:30;;;;;;;6.68;4.07;;;;;;;15.00;55.67;100911.41;5019788;28;20060;-67
2021/05/18 14:59:56;;;;;;;7.47;4.88;;;;;;;15.00;56.77;100916.63;5023648;28;20049;-65
2021/05/18 15:02:22;;;;;;;6.45;4.07;;;;;;;14.86;58.48;100925.81;5016682;28;20053;-65
2021/05/18 15:04:48;;;;;;;7.25;4.50;;;;;;;14.73;59.54;100914.03;5014234;28;20543;-66
2021/05/18 15:07:15;;;;;;;8.38;4.57;;;;;;;14.66;58.97;100917.75;5018455;28;20057;-66
2021/05/18 15:09:41;;;;;;;6.57;4.40;;;;;;;14.77;59.17;100913.88;5035165;28;20050;-62
2021/05/18 15:12:07;;;;;;;7.40;4.30;;;;;;;14.73;58.98;100921.88;5018129;28;20045;-65
2021/05/18 15:14:34;;;;;;;6.57;4.28;;;;;;;14.98;58.80;100921.06;5016976;28;20049;-64
2021/05/18 15:17:01;;;;;;;5.68;3.63;;;;;;;15.31;56.51;100918.16;5011216;28;20099;-73
2021/05/18 15:19:27;;;;;;;7.65;4.50;;;;;;;15.64;55.51;100921.31;5018847;28;20045;-72
2021/05/18 15:21:53;;;;;;;6.90;4.03;;;;;;;15.82;55.78;100919.72;5027705;28;20052;-70
2021/05/18 15:24:20;;;;;;;53.40;35.75;;;;;;;16.09;54.92;100921.38;5016725;28;20140;-66
2021/05/18 15:26:46;;;;;;;92.90;60.90;;;;;;;16.21;53.81;100926.16;5019150;28;20156;-62
2021/05/18 15:29:13;;;;;;;7.45;4.38;;;;;;;16.16;52.12;100926.34;5013610;28;20060;-64
2021/05/18 15:31:39;;;;;;;10.68;4.60;;;;;;;16.19;51.19;100924.50;5022165;28;20473;-66
2021/05/18 15:34:05;;;;;;;7.82;4.85;;;;;;;16.14;52.11;100922.06;5027169;28;20136;-65
2021/05/18 15:36:31;;;;;;;7.50;4.75;;;;;;;15.99;51.52;100924.38;5028375;28;20049;-65
2021/05/18 15:38:58;;;;;;;7.07;4.85;;;;;;;15.78;52.02;100925.16;5036690;28;20049;-66
2021/05/18 15:41:27;;;;;;;6.93;4.57;;;;;;;15.79;52.96;100919.88;5028357;28;20557;-65
2021/05/18 15:43:53;;;;;;;6.20;4.45;;;;;;;15.78;53.20;100917.28;5023987;28;20045;-66
2021/05/18 15:46:19;;;;;;;7.25;4.35;;;;;;;15.65;53.37;100917.78;5030995;28;20055;-66
2021/05/18 15:48:45;;;;;;;8.15;4.78;;;;;;;15.82;54.16;100918.91;5034947;28;20044;-66
2021/05/18 15:51:11;;;;;;;9.98;4.95;;;;;;;16.10;53.15;100917.84;5029637;28;20048;-66
2021/05/18 15:53:38;;;;;;;8.48;5.15;;;;;;;16.21;52.36;100928.78;5031065;28;20581;-63
2021/05/18 15:56:05;;;;;;;5.93;4.10;;;;;;;16.28;51.84;100918.88;5030002;28;20045;-65
2021/05/18 15:58:32;;;;;;;10.32;4.53;;;;;;;16.43;50.88;100922.66;5024862;28;20054;-66
2021/05/18 16:00:58;;;;;;;8.55;4.30;;;;;;;16.29;52.81;100931.94;5025795;28;20049;-65